createdAt,value
2022-12-09T00:01:11.585Z,25.23
2022-12-09T00:03:39.099Z,27.05
2022-12-09T00:06:15.522Z,29.17
2022-12-09T00:08:42.552Z,31.27
2022-12-09T00:11:09.479Z,30.15
2022-12-09T00:13:36.939Z,29.27
2022-12-09T00:16:14.839Z,27.67
2022-12-09T00:18:42.483Z,26.80
2022-12-09T00:21:15.036Z,30.17
2022-12-09T00:23:42.075Z,29.73
2022-12-09T00:26:08.929Z,28.83
2022-12-09T00:28:35.849Z,27.92
2022-12-09T00:31:04.048Z,29.83
2022-12-09T00:33:32.893Z,27.73
2022-12-09T00:36:12.190Z,26.15
2022-12-09T00:38:39.239Z,29.05
2022-12-09T00:41:06.171Z,26.67
2022-12-09T00:43:33.879Z,26.77
2022-12-09T00:46:01.651Z,31.02
2022-12-09T00:48:29.358Z,27.42
2022-12-09T00:50:56.614Z,28.05
2022-12-09T00:53:23.487Z,25.13
2022-12-09T00:55:50.563Z,28.05
2022-12-09T00:58:17.658Z,28.33
2022-12-09T01:00:44.762Z,26.75
2022-12-09T01:03:16.709Z,24.13
2022-12-09T01:05:44.503Z,27.33
2022-12-09T01:08:12.347Z,29.60
2022-12-09T01:10:40.788Z,30.95
2022-12-09T01:13:08.162Z,31.15
2022-12-09T01:15:35.129Z,31.73
2022-12-09T01:18:02.249Z,28.65
2022-12-09T01:20:29.526Z,33.20
2022-12-09T01:22:56.678Z,28.48
2022-12-09T01:25:23.681Z,31.95
2022-12-09T01:27:50.734Z,30.63
2022-12-09T01:30:17.794Z,28.25
2022-12-09T01:32:44.789Z,27.80
2022-12-09T01:35:11.752Z,25.75
2022-12-09T01:37:38.970Z,24.80
2022-12-09T01:40:09.539Z,24.60
2022-12-09T01:42:36.934Z,24.27
2022-12-09T01:45:22.382Z,25.23
2022-12-09T01:48:02.302Z,23.35
2022-12-09T01:50:29.909Z,25.30
2022-12-09T01:52:57.895Z,23.88
2022-12-09T01:55:25.258Z,23.00
2022-12-09T01:57:52.891Z,23.25
2022-12-09T02:00:21.032Z,23.33
2022-12-09T02:02:50.585Z,23.90
2022-12-09T02:05:18.847Z,23.90
2022-12-09T02:07:45.716Z,26.33
2022-12-09T02:10:17.503Z,28.98
2022-12-09T02:13:13.433Z,26.67
2022-12-09T02:15:48.215Z,28.05
2022-12-09T02:18:36.150Z,25.05
2022-12-09T02:21:18.597Z,24.00
2022-12-09T02:23:51.842Z,25.27
2022-12-09T02:26:42.549Z,23.83
2022-12-09T02:29:30.637Z,25.35
2022-12-09T02:32:06.801Z,25.08
2022-12-09T02:34:39.524Z,27.02
2022-12-09T02:37:44.694Z,27.73
2022-12-09T02:40:19.598Z,23.67
2022-12-09T02:42:48.739Z,23.25
2022-12-09T02:45:18.603Z,22.88
2022-12-09T02:47:50.495Z,23.13
2022-12-09T02:50:21.614Z,24.02
2022-12-09T02:52:50.030Z,20.92
2022-12-09T02:55:19.489Z,22.30
2022-12-09T02:57:51.140Z,23.23
2022-12-09T03:00:18.527Z,26.73
2022-12-09T03:02:50.484Z,26.13
2022-12-09T03:05:47.966Z,26.50
2022-12-09T03:08:24.744Z,26.30
2022-12-09T03:11:16.086Z,26.33
2022-12-09T03:16:59.534Z,27.38
2022-12-09T03:19:32.055Z,27.92
2022-12-09T03:22:03.991Z,26.67
2022-12-09T03:24:39.673Z,27.25
2022-12-09T03:27:10.398Z,30.90
2022-12-09T03:29:41.674Z,32.63
2022-12-09T03:32:11.827Z,31.73
2022-12-09T03:34:42.446Z,30.57
2022-12-09T03:37:12.145Z,30.85
2022-12-09T03:39:40.164Z,31.27
2022-12-09T03:42:16.024Z,30.00
2022-12-09T03:44:52.350Z,32.38
2022-12-09T03:47:19.627Z,28.95
2022-12-09T03:49:46.596Z,38.60
2022-12-09T03:52:35.387Z,33.63
2022-12-09T03:55:09.423Z,36.78
2022-12-09T03:57:40.496Z,37.15
2022-12-09T04:00:08.359Z,46.20
2022-12-09T04:02:35.461Z,44.38
2022-12-09T04:05:02.638Z,42.40
2022-12-09T04:07:30.231Z,55.25
2022-12-09T04:09:57.180Z,38.58
2022-12-09T04:12:24.249Z,48.50
2022-12-09T04:14:51.265Z,41.78
2022-12-09T04:17:18.125Z,44.60
2022-12-09T04:19:45.094Z,49.90
2022-12-09T04:22:14.956Z,49.10
2022-12-09T04:24:42.186Z,49.75
2022-12-09T04:27:11.895Z,41.67
2022-12-09T04:29:39.899Z,44.28
2022-12-09T04:32:07.089Z,43.72
2022-12-09T04:34:34.736Z,56.50
2022-12-09T04:37:01.752Z,53.85
2022-12-09T04:39:28.566Z,43.58
2022-12-09T04:41:55.271Z,47.08
2022-12-09T04:44:22.656Z,50.58
2022-12-09T04:46:49.973Z,47.58
2022-12-09T04:49:16.824Z,49.50
2022-12-09T04:51:43.909Z,51.78
2022-12-09T04:54:14.574Z,47.88
2022-12-09T04:56:42.498Z,43.53
2022-12-09T04:59:09.433Z,38.50
2022-12-09T05:01:36.559Z,40.53
2022-12-09T05:04:05.416Z,39.28
2022-12-09T05:06:32.863Z,37.67
2022-12-09T05:09:00.355Z,31.70
2022-12-09T05:11:28.216Z,35.97
2022-12-09T05:13:55.284Z,33.63
2022-12-09T05:16:23.174Z,34.83
2022-12-09T05:18:50.351Z,37.40
2022-12-09T05:21:20.220Z,30.33
2022-12-09T05:23:48.066Z,31.83
2022-12-09T05:26:18.043Z,29.85
2022-12-09T05:28:45.038Z,30.55
2022-12-09T05:31:18.147Z,28.88
2022-12-09T05:33:46.289Z,25.23
2022-12-09T05:36:17.732Z,28.05
2022-12-09T05:38:45.160Z,25.17
2022-12-09T05:41:12.980Z,24.63
2022-12-09T05:43:41.196Z,27.98
2022-12-09T05:46:08.629Z,24.08
2022-12-09T05:48:36.643Z,23.48
2022-12-09T05:51:06.777Z,22.92
2022-12-09T05:53:34.768Z,23.30
2022-12-09T05:56:02.035Z,23.58
2022-12-09T05:58:29.575Z,23.02
2022-12-09T06:00:58.050Z,22.50
2022-12-09T06:03:25.404Z,22.73
2022-12-09T06:05:52.644Z,23.58
2022-12-09T06:08:20.408Z,21.05
2022-12-09T06:10:47.454Z,22.80
2022-12-09T06:13:15.272Z,22.70
2022-12-09T06:15:42.425Z,21.58
2022-12-09T06:18:09.742Z,22.02
2022-12-09T06:20:40.517Z,20.08
2022-12-09T06:23:07.936Z,21.38
2022-12-09T06:25:35.592Z,20.63
2022-12-09T06:28:03.562Z,20.52
2022-12-09T06:30:31.251Z,20.08
2022-12-09T06:32:58.460Z,20.20
2022-12-09T06:35:25.488Z,19.15
2022-12-09T06:37:53.689Z,19.38
2022-12-09T06:40:23.654Z,20.08
2022-12-09T06:42:51.398Z,19.03
2022-12-09T06:45:19.955Z,18.90
2022-12-09T06:47:48.428Z,19.60
2022-12-09T06:50:16.238Z,19.60
2022-12-09T06:52:43.516Z,19.50
2022-12-09T06:55:11.295Z,18.80
2022-12-09T06:57:38.866Z,20.75
2022-12-09T07:00:06.666Z,22.05
2022-12-09T07:02:36.704Z,19.23
2022-12-09T07:05:04.689Z,19.40
2022-12-09T07:07:32.564Z,19.67
2022-12-09T07:10:03.102Z,21.70
2022-12-09T07:12:30.330Z,23.08
2022-12-09T07:14:57.601Z,27.67
2022-12-09T07:17:24.817Z,24.02
2022-12-09T07:19:52.035Z,24.25
2022-12-09T07:22:19.146Z,28.27
2022-12-09T07:24:46.404Z,24.60
2022-12-09T07:27:19.373Z,25.63
2022-12-09T07:29:47.213Z,33.78
2022-12-09T07:32:14.896Z,25.65
2022-12-09T07:34:43.055Z,29.48
2022-12-09T07:37:10.249Z,27.77
2022-12-09T07:39:37.497Z,22.30
2022-12-09T07:42:04.631Z,26.80
2022-12-09T07:44:31.776Z,30.30
2022-12-09T07:46:58.724Z,34.22
2022-12-09T07:49:26.615Z,22.70
2022-12-09T07:51:53.702Z,28.13
2022-12-09T07:54:21.373Z,32.22
2022-12-09T07:56:48.800Z,29.55
2022-12-09T07:59:17.031Z,26.88
2022-12-09T08:01:44.548Z,33.42
2022-12-09T08:04:12.306Z,24.33
2022-12-09T08:06:39.705Z,25.98
2022-12-09T08:09:10.432Z,31.73
2022-12-09T08:11:37.515Z,34.70
2022-12-09T08:14:11.273Z,28.33
2022-12-09T08:16:39.716Z,21.48
2022-12-09T08:19:07.302Z,27.83
2022-12-09T08:21:34.601Z,22.33
2022-12-09T08:24:04.160Z,27.70
2022-12-09T08:26:32.530Z,27.98
2022-12-09T08:28:59.930Z,28.30
2022-12-09T08:31:27.766Z,25.55
2022-12-09T08:33:56.010Z,24.83
2022-12-09T08:36:26.395Z,30.90
2022-12-09T08:38:54.497Z,23.75
2022-12-09T08:41:36.340Z,32.03
2022-12-09T08:44:13.634Z,26.73
2022-12-09T08:46:43.640Z,26.40
2022-12-09T08:49:11.846Z,27.13
2022-12-09T08:51:39.664Z,23.52
2022-12-09T08:54:07.096Z,25.05
2022-12-09T08:56:34.472Z,26.13
2022-12-09T08:59:02.093Z,25.77
2022-12-09T09:01:36.103Z,26.63
2022-12-09T09:04:15.699Z,22.08
2022-12-09T09:06:45.269Z,21.27
2022-12-09T09:09:14.281Z,28.02
2022-12-09T09:11:42.211Z,24.13
2022-12-09T09:14:11.708Z,28.73
2022-12-09T09:16:40.892Z,22.17
2022-12-09T09:19:08.774Z,29.48
2022-12-09T09:21:36.104Z,22.80
2022-12-09T09:24:09.426Z,45.17
2022-12-09T09:26:40.168Z,35.80
2022-12-09T09:29:07.255Z,29.23
2022-12-09T09:31:35.033Z,22.33
2022-12-09T09:34:02.067Z,26.50
2022-12-09T09:36:29.073Z,31.33
2022-12-09T09:38:57.433Z,29.60
2022-12-09T09:41:56.513Z,26.67
2022-12-09T09:44:30.362Z,28.92
2022-12-09T09:46:58.535Z,29.40
2022-12-09T09:49:30.212Z,19.10
2022-12-09T09:51:58.453Z,35.00
2022-12-09T09:54:25.626Z,27.65
2022-12-09T09:57:28.344Z,22.88
2022-12-09T10:00:27.716Z,33.47
2022-12-09T10:03:12.932Z,29.98
2022-12-09T10:05:56.514Z,31.35
2022-12-09T10:08:29.975Z,34.15
2022-12-09T10:11:15.024Z,25.55
2022-12-09T10:14:14.411Z,27.00
2022-12-09T10:16:43.869Z,31.10
2022-12-09T10:19:19.763Z,44.67
2022-12-09T10:21:49.579Z,33.22
2022-12-09T10:24:26.711Z,27.52
2022-12-09T10:27:11.831Z,24.90
2022-12-09T10:29:56.879Z,28.52
2022-12-09T10:32:27.667Z,34.38
2022-12-09T10:34:55.149Z,30.25
2022-12-09T10:37:32.939Z,25.30
2022-12-09T10:40:13.317Z,21.00
2022-12-09T10:43:11.052Z,20.00
2022-12-09T10:48:49.379Z,20.63
2022-12-09T10:51:18.683Z,24.73
2022-12-09T10:54:15.450Z,24.42
2022-12-09T10:57:12.642Z,19.60
2022-12-09T10:59:42.602Z,45.95
2022-12-09T11:02:09.876Z,15.13
2022-12-09T11:04:40.483Z,23.90
2022-12-09T11:07:07.704Z,22.52
2022-12-09T11:09:38.655Z,12.95
2022-12-09T11:12:08.503Z,11.38
2022-12-09T11:14:41.357Z,14.27
2022-12-09T11:17:16.058Z,24.75
2022-12-09T11:19:47.043Z,21.02
2022-12-09T11:22:23.100Z,15.52
2022-12-09T11:24:53.763Z,20.85
2022-12-09T11:27:31.779Z,21.10
2022-12-09T11:30:12.851Z,21.15
2022-12-09T11:32:56.721Z,14.00
2022-12-09T11:35:32.185Z,15.90
2022-12-09T11:38:03.778Z,13.63
2022-12-09T11:40:31.944Z,16.27
2022-12-09T11:42:58.811Z,15.77
2022-12-09T11:45:36.459Z,17.83
2022-12-09T11:48:35.045Z,22.42
2022-12-09T11:51:04.809Z,17.45
2022-12-09T11:53:34.345Z,15.20
2022-12-09T11:56:08.046Z,20.20
2022-12-09T11:59:00.215Z,20.38
2022-12-09T12:01:45.825Z,17.95
2022-12-09T12:04:16.842Z,21.20
2022-12-09T12:06:50.850Z,18.13
2022-12-09T12:09:29.662Z,29.92
2022-12-09T12:12:33.877Z,14.70
2022-12-09T12:15:10.470Z,18.80
2022-12-09T12:17:43.363Z,23.13
2022-12-09T12:20:13.322Z,23.92
2022-12-09T12:23:05.137Z,15.88
2022-12-09T12:25:56.136Z,18.30
2022-12-09T12:29:06.884Z,22.90
2022-12-09T12:32:11.660Z,19.85
2022-12-09T12:34:51.810Z,15.48
2022-12-09T12:37:30.853Z,13.55
2022-12-09T12:40:07.996Z,16.60
2022-12-09T12:43:19.231Z,16.33
2022-12-09T12:46:13.260Z,22.45
2022-12-09T12:49:12.558Z,19.45
2022-12-09T12:52:46.981Z,22.20
2022-12-09T12:55:28.750Z,18.13
2022-12-09T12:58:10.640Z,14.02
2022-12-09T13:01:00.719Z,15.50
2022-12-09T13:03:50.703Z,20.77
2022-12-09T13:06:24.226Z,13.98
2022-12-09T13:09:03.345Z,19.55
2022-12-09T13:11:43.313Z,21.48
2022-12-09T13:14:25.582Z,17.25
2022-12-09T13:16:53.258Z,24.45
2022-12-09T13:19:44.125Z,20.20
2022-12-09T13:22:21.843Z,10.43
2022-12-09T13:25:00.453Z,15.23
2022-12-09T13:28:07.726Z,12.40
2022-12-09T13:30:42.811Z,20.05
2022-12-09T13:33:32.461Z,13.63
2022-12-09T13:36:18.510Z,11.48
2022-12-09T13:38:45.987Z,14.60
2022-12-09T13:41:27.843Z,17.45
2022-12-09T13:44:05.955Z,16.80
2022-12-09T13:46:33.765Z,19.70
2022-12-09T13:49:10.885Z,15.43
2022-12-09T13:51:49.925Z,19.23
2022-12-09T13:54:22.456Z,11.30
2022-12-09T13:57:17.682Z,14.80
2022-12-09T13:59:55.322Z,13.57
2022-12-09T14:02:40.569Z,10.90
2022-12-09T14:05:13.582Z,13.70
2022-12-09T14:07:52.922Z,11.18
2022-12-09T14:10:43.511Z,12.75
2022-12-09T14:13:25.751Z,12.50
2022-12-09T14:16:27.836Z,11.45
2022-12-09T14:18:56.390Z,9.98
2022-12-09T14:21:26.797Z,12.82
2022-12-09T14:24:09.086Z,10.48
2022-12-09T14:26:40.458Z,11.88
2022-12-09T14:31:56.013Z,12.18
2022-12-09T14:34:35.231Z,13.52
2022-12-09T14:37:17.029Z,11.32
2022-12-09T14:39:49.525Z,12.05
2022-12-09T14:43:04.242Z,22.65
2022-12-09T14:45:48.137Z,13.07
2022-12-09T14:48:24.002Z,8.35
2022-12-09T14:51:18.900Z,10.77
2022-12-09T14:54:12.428Z,12.35
2022-12-09T14:56:39.403Z,9.57
2022-12-09T14:59:10.009Z,9.85
2022-12-09T15:02:00.011Z,11.32
2022-12-09T15:04:32.501Z,9.07
2022-12-09T15:07:20.482Z,12.32
2022-12-09T15:10:08.161Z,10.80
2022-12-09T15:12:37.905Z,13.32
2022-12-09T15:15:15.996Z,10.45
2022-12-09T15:17:54.741Z,11.73
2022-12-09T15:20:27.678Z,14.02
2022-12-09T15:23:01.941Z,9.45
2022-12-09T15:25:29.764Z,13.25
2022-12-09T15:28:00.095Z,9.90
2022-12-09T15:30:31.502Z,11.68
2022-12-09T15:35:28.534Z,13.18
2022-12-09T15:37:58.610Z,15.23
2022-12-09T15:40:29.416Z,14.02
2022-12-09T15:43:01.045Z,16.33
2022-12-09T15:45:33.349Z,12.60
2022-12-09T15:48:14.393Z,13.82
2022-12-09T15:50:54.829Z,17.73
2022-12-09T15:53:53.585Z,17.52
2022-12-09T15:56:44.824Z,13.52
2022-12-09T15:59:17.617Z,12.35
2022-12-09T16:01:51.237Z,17.88
2022-12-09T16:04:21.446Z,19.15
2022-12-09T16:06:52.038Z,10.40
2022-12-09T16:09:21.013Z,16.40
2022-12-09T16:11:50.635Z,8.32
2022-12-09T16:14:19.403Z,12.43
2022-12-09T16:17:00.535Z,14.30
2022-12-09T16:19:40.753Z,12.55
2022-12-09T16:22:41.825Z,10.80
2022-12-09T16:25:23.015Z,11.27
2022-12-09T16:27:58.065Z,12.02
2022-12-09T16:30:27.744Z,12.13
2022-12-09T16:32:56.476Z,14.93
2022-12-09T16:36:15.893Z,11.35
2022-12-09T16:38:53.200Z,13.02
2022-12-09T16:41:20.562Z,15.60
2022-12-09T16:43:56.520Z,16.73
2022-12-09T16:46:29.113Z,13.20
2022-12-09T16:48:57.313Z,18.35
2022-12-09T16:53:54.637Z,12.70
2022-12-09T16:56:29.846Z,15.45
2022-12-09T16:58:57.416Z,14.82
2022-12-09T17:01:31.944Z,10.07
2022-12-09T17:04:04.376Z,11.82
2022-12-09T17:06:31.400Z,12.15
2022-12-09T17:08:58.207Z,12.23
2022-12-09T17:11:25.294Z,11.27
2022-12-09T17:13:52.576Z,11.73
2022-12-09T17:16:22.343Z,12.43
2022-12-09T17:18:49.809Z,11.30
2022-12-09T17:21:16.874Z,11.07
2022-12-09T17:23:44.318Z,11.00
2022-12-09T17:26:14.872Z,9.32
2022-12-09T17:28:42.986Z,10.38
2022-12-09T17:31:11.930Z,9.38
2022-12-09T17:33:38.960Z,11.35
2022-12-09T17:36:07.469Z,10.23
2022-12-09T17:38:34.818Z,20.23
2022-12-09T17:41:11.510Z,27.63
2022-12-09T17:43:38.255Z,32.75
2022-12-09T17:46:06.465Z,29.90
2022-12-09T17:48:34.770Z,24.92
2022-12-09T17:51:09.451Z,25.85
2022-12-09T17:53:37.731Z,27.67
2022-12-09T17:56:13.253Z,25.30
2022-12-09T17:58:40.470Z,24.02
2022-12-09T18:01:28.032Z,29.83
2022-12-09T18:04:02.975Z,24.17
2022-12-09T18:06:36.383Z,19.05
2022-12-09T18:09:05.517Z,22.73
2022-12-09T18:11:32.507Z,20.75
2022-12-09T18:14:00.316Z,19.27
2022-12-09T18:16:27.535Z,47.58
2022-12-09T18:18:54.507Z,57.25
2022-12-09T18:21:23.877Z,44.20
2022-12-09T18:23:50.749Z,41.63
2022-12-09T18:26:19.374Z,30.83
2022-12-09T18:28:46.532Z,44.95
2022-12-09T18:31:16.078Z,42.30
2022-12-09T18:33:43.578Z,47.05
2022-12-09T18:36:13.204Z,45.63
2022-12-09T18:38:40.897Z,39.45
2022-12-09T18:41:15.837Z,31.88
2022-12-09T18:43:44.540Z,33.50
2022-12-09T18:46:20.285Z,29.63
2022-12-09T18:48:54.505Z,24.27
2022-12-09T18:51:22.039Z,41.13
2022-12-09T18:53:48.809Z,45.53
2022-12-09T18:56:16.671Z,55.42
2022-12-09T18:59:05.288Z,46.97
2022-12-09T19:01:31.616Z,45.05
2022-12-09T19:04:00.832Z,40.03
2022-12-09T19:06:33.248Z,33.83
2022-12-09T19:09:07.907Z,26.95
2022-12-09T19:11:37.960Z,27.10
2022-12-09T19:14:06.520Z,27.48
2022-12-09T19:16:33.331Z,26.48
2022-12-09T19:19:05.530Z,23.13
2022-12-09T19:21:35.799Z,23.15
2022-12-09T19:24:02.618Z,23.92
2022-12-09T19:26:31.788Z,31.90
2022-12-09T19:29:01.730Z,50.28
2022-12-09T19:31:36.173Z,47.47
2022-12-09T19:34:06.459Z,48.63
2022-12-09T19:36:36.326Z,46.38
2022-12-09T19:39:06.151Z,44.50
2022-12-09T19:41:33.307Z,45.28
2022-12-09T19:44:01.481Z,48.63
2022-12-09T19:46:28.880Z,41.65
2022-12-09T19:48:56.510Z,43.10
2022-12-09T19:51:24.336Z,48.08
2022-12-09T19:53:56.246Z,47.55
2022-12-09T19:56:23.380Z,50.92
2022-12-09T19:58:50.869Z,62.47
2022-12-09T20:01:27.013Z,42.13
2022-12-09T20:04:08.801Z,37.63
2022-12-09T20:06:46.381Z,27.75
2022-12-09T20:09:14.905Z,26.60
2022-12-09T20:11:42.315Z,27.40
2022-12-09T20:14:12.806Z,41.78
2022-12-09T20:16:40.034Z,45.40
2022-12-09T20:19:07.556Z,55.08
2022-12-09T20:21:35.389Z,65.32
2022-12-09T20:24:03.032Z,50.85
2022-12-09T20:26:32.392Z,48.00
2022-12-09T20:29:03.025Z,53.50
2022-12-09T20:31:32.002Z,38.47
2022-12-09T20:34:02.257Z,69.80
2022-12-09T20:36:31.527Z,41.92
2022-12-09T20:39:01.369Z,37.42
2022-12-09T20:41:29.070Z,38.40
2022-12-09T20:43:58.534Z,31.83
2022-12-09T20:46:28.186Z,37.95
2022-12-09T20:48:56.044Z,38.65
2022-12-09T20:51:34.768Z,35.80
2022-12-09T20:54:01.825Z,30.63
2022-12-09T20:56:29.691Z,43.08
2022-12-09T20:58:57.805Z,55.55
2022-12-09T21:01:27.335Z,54.45
2022-12-09T21:03:55.822Z,64.40
2022-12-09T21:06:25.282Z,60.33
2022-12-09T21:08:53.888Z,58.78
2022-12-09T21:11:23.112Z,58.30
2022-12-09T21:13:58.103Z,53.33
2022-12-09T21:16:31.178Z,57.80
2022-12-09T21:19:02.050Z,53.88
2022-12-09T21:21:31.449Z,60.95
2022-12-09T21:24:00.641Z,59.42
2022-12-09T21:26:28.858Z,65.22
2022-12-09T21:28:56.412Z,60.42
2022-12-09T21:31:29.618Z,57.92
2022-12-09T21:33:57.897Z,49.58
2022-12-09T21:36:27.169Z,48.90
2022-12-09T21:38:54.549Z,48.53
2022-12-09T21:41:24.799Z,51.30
2022-12-09T21:43:52.661Z,49.80
2022-12-09T21:46:21.789Z,52.08
2022-12-09T21:48:52.360Z,48.35
2022-12-09T21:51:21.086Z,54.60
2022-12-09T21:53:49.105Z,49.50
2022-12-09T21:56:19.659Z,50.72
2022-12-09T21:58:48.393Z,53.78
2022-12-09T22:01:18.591Z,53.53
2022-12-09T22:03:46.382Z,56.42
2022-12-09T22:06:13.582Z,58.70
2022-12-09T22:08:41.412Z,64.85
2022-12-09T22:11:17.879Z,60.40
2022-12-09T22:13:45.021Z,53.40
2022-12-09T22:16:21.310Z,60.75
2022-12-09T22:18:49.203Z,53.60
2022-12-09T22:21:27.811Z,45.67
2022-12-09T22:23:57.103Z,45.95
2022-12-09T22:26:24.891Z,43.13
2022-12-09T22:28:52.637Z,36.20
2022-12-09T22:31:28.499Z,36.35
2022-12-09T22:33:58.525Z,35.50
2022-12-09T22:36:25.621Z,31.90
2022-12-09T22:38:53.331Z,36.30
2022-12-09T22:41:23.188Z,35.65
2022-12-09T22:43:50.757Z,34.67
2022-12-09T22:46:31.558Z,40.40
2022-12-09T22:49:03.405Z,36.75
2022-12-09T22:51:32.003Z,39.38
2022-12-09T22:53:59.160Z,38.28
2022-12-09T22:56:26.354Z,35.45
2022-12-09T22:58:54.095Z,34.15
2022-12-09T23:01:23.871Z,34.67
2022-12-09T23:03:50.623Z,32.33
2022-12-09T23:06:17.869Z,32.20
2022-12-09T23:08:45.459Z,30.63
2022-12-09T23:11:15.976Z,30.85
2022-12-09T23:13:43.273Z,31.13
2022-12-09T23:16:14.112Z,31.27
2022-12-09T23:18:41.863Z,28.95
2022-12-09T23:21:10.158Z,28.30
2022-12-09T23:23:37.284Z,27.83
2022-12-09T23:26:06.289Z,28.00
2022-12-09T23:28:37.547Z,28.35
2022-12-09T23:33:33.287Z,35.00
2022-12-09T23:36:09.110Z,32.30
2022-12-09T23:38:36.457Z,32.10
2022-12-09T23:41:03.460Z,33.10
2022-12-09T23:43:34.482Z,30.20
2022-12-09T23:46:02.381Z,29.73
2022-12-09T23:48:29.623Z,30.55
2022-12-09T23:50:56.832Z,38.90
2022-12-09T23:53:23.742Z,41.80
2022-12-09T23:55:50.547Z,39.65
2022-12-09T23:58:17.282Z,37.40
